Terminal Aerodrome Forecast
Issued by NWS Lake Charles, LA

Home | Current Version | Previous Version | Text Only | Print | Product List | Glossary On
Versions: 1 2 3 4 5 6 7 8 9 10 11 12 13 14 15
093
FTUS44 KLCH 230520
TAFLCH
TAF
KLCH 230520Z 2306/2406 34012G20KT P6SM SCT025 BKN080
      TEMPO 2312/2315 BKN025
     FM231500 35014G22KT P6SM SCT035
     FM240100 36004KT P6SM SKC=

USA.gov is the U.S. government's official web portal to all federal, state and local government web resources and services.